sensor_id;sensor_type;location;lat;lon;timestamp;temperature;humidity
74923;HTU21D;64715;44.760;37.678;2023-05-07T00:00:48;16.87;70.12
74923;HTU21D;64715;44.760;37.678;2023-05-07T00:01:50;16.86;70.27
74923;HTU21D;64715;44.760;37.678;2023-05-07T00:02:51;16.84;70.18
74923;HTU21D;64715;44.760;37.678;2023-05-07T00:03:52;16.85;70.29
74923;HTU21D;64715;44.760;37.678;2023-05-07T00:04:53;16.86;70.26
74923;HTU21D;64715;44.760;37.678;2023-05-07T00:05:54;16.84;70.44
74923;HTU21D;64715;44.760;37.678;2023-05-07T00:06:55;16.84;70.33
74923;HTU21D;64715;44.760;37.678;2023-05-07T00:07:56;16.85;70.29
74923;HTU21D;64715;44.760;37.678;2023-05-07T00:08:57;16.85;70.27
74923;HTU21D;64715;44.760;37.678;2023-05-07T00:09:58;16.85;70.39
74923;HTU21D;64715;44.760;37.678;2023-05-07T00:10:59;16.85;70.35
74923;HTU21D;64715;44.760;37.678;2023-05-07T00:12:01;16.86;70.36
74923;HTU21D;64715;44.760;37.678;2023-05-07T00:13:02;16.82;70.29
74923;HTU21D;64715;44.760;37.678;2023-05-07T00:14:03;16.84;70.52
74923;HTU21D;64715;44.760;37.678;2023-05-07T00:15:06;16.82;70.43
74923;HTU21D;64715;44.760;37.678;2023-05-07T00:16:07;16.80;70.67
74923;HTU21D;64715;44.760;37.678;2023-05-07T00:17:08;16.81;70.67
74923;HTU21D;64715;44.760;37.678;2023-05-07T00:18:11;16.80;70.72
74923;HTU21D;64715;44.760;37.678;2023-05-07T00:19:12;16.78;70.69
74923;HTU21D;64715;44.760;37.678;2023-05-07T00:20:12;16.78;70.45
74923;HTU21D;64715;44.760;37.678;2023-05-07T00:21:14;16.77;70.42
74923;HTU21D;64715;44.760;37.678;2023-05-07T00:22:14;16.78;70.93
74923;HTU21D;64715;44.760;37.678;2023-05-07T00:23:16;16.76;70.94
74923;HTU21D;64715;44.760;37.678;2023-05-07T00:24:20;16.76;71.08
74923;HTU21D;64715;44.760;37.678;2023-05-07T00:25:21;16.77;71.07
74923;HTU21D;64715;44.760;37.678;2023-05-07T00:26:22;16.78;71.41
74923;HTU21D;64715;44.760;37.678;2023-05-07T00:27:25;16.79;71.18
74923;HTU21D;64715;44.760;37.678;2023-05-07T00:28:26;16.79;71.45
74923;HTU21D;64715;44.760;37.678;2023-05-07T00:29:27;16.78;71.25
74923;HTU21D;64715;44.760;37.678;2023-05-07T00:30:28;16.77;71.16
74923;HTU21D;64715;44.760;37.678;2023-05-07T00:31:29;16.74;71.59
74923;HTU21D;64715;44.760;37.678;2023-05-07T00:32:30;16.73;71.32
74923;HTU21D;64715;44.760;37.678;2023-05-07T00:33:31;16.70;71.44
74923;HTU21D;64715;44.760;37.678;2023-05-07T00:34:32;16.66;71.28
74923;HTU21D;64715;44.760;37.678;2023-05-07T00:35:33;16.65;71.53
74923;HTU21D;64715;44.760;37.678;2023-05-07T00:36:34;16.63;71.41
74923;HTU21D;64715;44.760;37.678;2023-05-07T00:37:35;16.60;71.54
74923;HTU21D;64715;44.760;37.678;2023-05-07T00:38:36;16.57;71.58
74923;HTU21D;64715;44.760;37.678;2023-05-07T00:39:37;16.58;71.80
74923;HTU21D;64715;44.760;37.678;2023-05-07T00:40:38;16.58;71.73
74923;HTU21D;64715;44.760;37.678;2023-05-07T00:41:39;16.59;71.71
74923;HTU21D;64715;44.760;37.678;2023-05-07T00:42:41;16.55;71.74
74923;HTU21D;64715;44.760;37.678;2023-05-07T00:43:42;16.55;71.73
74923;HTU21D;64715;44.760;37.678;2023-05-07T00:44:43;16.54;71.71
74923;HTU21D;64715;44.760;37.678;2023-05-07T00:45:44;16.50;71.74
74923;HTU21D;64715;44.760;37.678;2023-05-07T00:46:45;16.48;71.67
74923;HTU21D;64715;44.760;37.678;2023-05-07T00:47:49;16.48;71.71
74923;HTU21D;64715;44.760;37.678;2023-05-07T00:48:51;16.47;71.58
74923;HTU21D;64715;44.760;37.678;2023-05-07T00:49:52;16.43;71.54
74923;HTU21D;64715;44.760;37.678;2023-05-07T00:50:54;16.43;71.62
74923;HTU21D;64715;44.760;37.678;2023-05-07T00:51:55;16.40;71.80
74923;HTU21D;64715;44.760;37.678;2023-05-07T00:52:57;16.40;71.94
74923;HTU21D;64715;44.760;37.678;2023-05-07T00:53:58;16.42;72.17
74923;HTU21D;64715;44.760;37.678;2023-05-07T00:55:05;16.42;71.74
74923;HTU21D;64715;44.760;37.678;2023-05-07T00:56:06;16.40;72.24
74923;HTU21D;64715;44.760;37.678;2023-05-07T00:57:09;16.41;72.15
74923;HTU21D;64715;44.760;37.678;2023-05-07T00:58:10;16.41;72.19
74923;HTU21D;64715;44.760;37.678;2023-05-07T00:59:11;16.42;71.71
74923;HTU21D;64715;44.760;37.678;2023-05-07T01:00:13;16.41;71.99
74923;HTU21D;64715;44.760;37.678;2023-05-07T01:01:15;16.37;71.93
74923;HTU21D;64715;44.760;37.678;2023-05-07T01:02:19;16.36;72.00
74923;HTU21D;64715;44.760;37.678;2023-05-07T01:03:20;16.35;71.96
74923;HTU21D;64715;44.760;37.678;2023-05-07T01:04:21;16.33;72.17
74923;HTU21D;64715;44.760;37.678;2023-05-07T01:05:23;16.33;72.11
74923;HTU21D;64715;44.760;37.678;2023-05-07T01:06:26;16.31;72.03
74923;HTU21D;64715;44.760;37.678;2023-05-07T01:07:28;16.29;72.19
74923;HTU21D;64715;44.760;37.678;2023-05-07T01:08:30;16.28;72.15
74923;HTU21D;64715;44.760;37.678;2023-05-07T01:09:32;16.26;72.00
74923;HTU21D;64715;44.760;37.678;2023-05-07T01:10:33;16.24;71.94
74923;HTU21D;64715;44.760;37.678;2023-05-07T01:11:34;16.21;72.16
74923;HTU21D;64715;44.760;37.678;2023-05-07T01:12:36;16.19;72.57
74923;HTU21D;64715;44.760;37.678;2023-05-07T01:13:39;16.17;72.32
74923;HTU21D;64715;44.760;37.678;2023-05-07T01:14:42;16.18;72.39
74923;HTU21D;64715;44.760;37.678;2023-05-07T01:15:43;16.17;72.06
74923;HTU21D;64715;44.760;37.678;2023-05-07T01:16:44;16.18;72.18
74923;HTU21D;64715;44.760;37.678;2023-05-07T01:17:45;16.17;71.99
74923;HTU21D;64715;44.760;37.678;2023-05-07T01:18:53;16.17;72.16
74923;HTU21D;64715;44.760;37.678;2023-05-07T01:19:54;16.16;71.96
74923;HTU21D;64715;44.760;37.678;2023-05-07T01:20:58;16.17;71.98
74923;HTU21D;64715;44.760;37.678;2023-05-07T01:22:03;16.15;71.94
74923;HTU21D;64715;44.760;37.678;2023-05-07T01:23:08;16.12;72.05
74923;HTU21D;64715;44.760;37.678;2023-05-07T01:24:11;16.11;71.87
74923;HTU21D;64715;44.760;37.678;2023-05-07T01:25:12;16.10;71.90
74923;HTU21D;64715;44.760;37.678;2023-05-07T01:26:20;16.08;71.81
74923;HTU21D;64715;44.760;37.678;2023-05-07T01:27:22;16.07;71.74
74923;HTU21D;64715;44.760;37.678;2023-05-07T01:28:25;16.06;71.80
74923;HTU21D;64715;44.760;37.678;2023-05-07T01:29:30;16.05;71.67
74923;HTU21D;64715;44.760;37.678;2023-05-07T01:30:33;16.03;71.86
74923;HTU21D;64715;44.760;37.678;2023-05-07T01:31:37;16.03;71.71
74923;HTU21D;64715;44.760;37.678;2023-05-07T01:32:52;16.00;71.94
74923;HTU21D;64715;44.760;37.678;2023-05-07T01:33:54;15.95;71.81
74923;HTU21D;64715;44.760;37.678;2023-05-07T01:34:57;15.91;71.78
74923;HTU21D;64715;44.760;37.678;2023-05-07T01:36:00;15.87;71.77
74923;HTU21D;64715;44.760;37.678;2023-05-07T01:37:03;15.81;71.72
74923;HTU21D;64715;44.760;37.678;2023-05-07T01:38:04;15.74;71.97
74923;HTU21D;64715;44.760;37.678;2023-05-07T01:39:07;15.67;71.92
74923;HTU21D;64715;44.760;37.678;2023-05-07T01:40:09;15.58;72.09
74923;HTU21D;64715;44.760;37.678;2023-05-07T01:41:11;15.52;72.09
74923;HTU21D;64715;44.760;37.678;2023-05-07T01:42:13;15.44;72.27
74923;HTU21D;64715;44.760;37.678;2023-05-07T01:43:14;15.38;72.40
74923;HTU21D;64715;44.760;37.678;2023-05-07T01:44:16;15.28;72.68
74923;HTU21D;64715;44.760;37.678;2023-05-07T01:45:19;15.24;72.90
74923;HTU21D;64715;44.760;37.678;2023-05-07T01:46:20;15.17;73.04
74923;HTU21D;64715;44.760;37.678;2023-05-07T01:47:21;15.13;73.12
74923;HTU21D;64715;44.760;37.678;2023-05-07T01:48:24;15.10;73.02
74923;HTU21D;64715;44.760;37.678;2023-05-07T01:49:25;15.06;72.83
74923;HTU21D;64715;44.760;37.678;2023-05-07T01:50:27;15.03;73.09
74923;HTU21D;64715;44.760;37.678;2023-05-07T01:51:28;15.02;73.17
74923;HTU21D;64715;44.760;37.678;2023-05-07T01:52:30;15.00;73.46
74923;HTU21D;64715;44.760;37.678;2023-05-07T01:53:38;14.98;73.19
74923;HTU21D;64715;44.760;37.678;2023-05-07T01:54:40;14.98;73.15
74923;HTU21D;64715;44.760;37.678;2023-05-07T01:55:41;14.98;73.28
74923;HTU21D;64715;44.760;37.678;2023-05-07T01:56:42;14.97;73.20
74923;HTU21D;64715;44.760;37.678;2023-05-07T01:57:44;14.94;73.40
74923;HTU21D;64715;44.760;37.678;2023-05-07T01:58:45;14.92;73.44
74923;HTU21D;64715;44.760;37.678;2023-05-07T01:59:46;14.92;73.65
74923;HTU21D;64715;44.760;37.678;2023-05-07T02:00:48;14.88;73.86
74923;HTU21D;64715;44.760;37.678;2023-05-07T02:01:48;14.86;74.00
74923;HTU21D;64715;44.760;37.678;2023-05-07T02:02:49;14.84;73.92
74923;HTU21D;64715;44.760;37.678;2023-05-07T02:04:13;14.79;73.73
74923;HTU21D;64715;44.760;37.678;2023-05-07T02:05:14;14.78;73.93
74923;HTU21D;64715;44.760;37.678;2023-05-07T02:06:16;14.78;73.89
74923;HTU21D;64715;44.760;37.678;2023-05-07T02:07:17;14.72;74.22
74923;HTU21D;64715;44.760;37.678;2023-05-07T02:08:19;14.70;74.08
74923;HTU21D;64715;44.760;37.678;2023-05-07T02:09:20;14.67;74.22
74923;HTU21D;64715;44.760;37.678;2023-05-07T02:10:23;14.65;74.27
74923;HTU21D;64715;44.760;37.678;2023-05-07T02:11:24;14.62;74.22
74923;HTU21D;64715;44.760;37.678;2023-05-07T02:12:25;14.60;74.28
74923;HTU21D;64715;44.760;37.678;2023-05-07T02:13:30;14.60;74.30
74923;HTU21D;64715;44.760;37.678;2023-05-07T02:14:31;14.56;74.45
74923;HTU21D;64715;44.760;37.678;2023-05-07T02:15:32;14.52;74.99
74923;HTU21D;64715;44.760;37.678;2023-05-07T02:16:35;14.48;74.84
74923;HTU21D;64715;44.760;37.678;2023-05-07T02:17:39;14.41;74.95
74923;HTU21D;64715;44.760;37.678;2023-05-07T02:18:58;14.35;74.90
74923;HTU21D;64715;44.760;37.678;2023-05-07T02:20:01;14.29;75.02
74923;HTU21D;64715;44.760;37.678;2023-05-07T02:21:03;14.27;75.32
74923;HTU21D;64715;44.760;37.678;2023-05-07T02:22:04;14.26;75.41
74923;HTU21D;64715;44.760;37.678;2023-05-07T02:23:05;14.21;75.79
74923;HTU21D;64715;44.760;37.678;2023-05-07T02:24:06;14.17;75.86
74923;HTU21D;64715;44.760;37.678;2023-05-07T02:25:08;14.13;76.08
74923;HTU21D;64715;44.760;37.678;2023-05-07T02:26:10;14.10;76.02
74923;HTU21D;64715;44.760;37.678;2023-05-07T02:27:12;14.07;76.11
74923;HTU21D;64715;44.760;37.678;2023-05-07T02:28:13;14.05;76.45
74923;HTU21D;64715;44.760;37.678;2023-05-07T02:29:24;13.98;76.44
74923;HTU21D;64715;44.760;37.678;2023-05-07T02:30:26;13.95;76.42
74923;HTU21D;64715;44.760;37.678;2023-05-07T02:31:30;13.93;76.51
74923;HTU21D;64715;44.760;37.678;2023-05-07T02:32:31;13.91;76.64
74923;HTU21D;64715;44.760;37.678;2023-05-07T02:33:32;13.90;76.64
74923;HTU21D;64715;44.760;37.678;2023-05-07T02:34:36;13.89;76.44
74923;HTU21D;64715;44.760;37.678;2023-05-07T02:35:38;13.86;76.65
74923;HTU21D;64715;44.760;37.678;2023-05-07T02:36:39;13.85;76.56
74923;HTU21D;64715;44.760;37.678;2023-05-07T02:37:45;13.83;76.59
74923;HTU21D;64715;44.760;37.678;2023-05-07T02:38:48;13.84;76.38
74923;HTU21D;64715;44.760;37.678;2023-05-07T02:39:49;13.86;76.63
74923;HTU21D;64715;44.760;37.678;2023-05-07T02:40:50;13.86;76.80
74923;HTU21D;64715;44.760;37.678;2023-05-07T02:41:51;13.90;76.63
74923;HTU21D;64715;44.760;37.678;2023-05-07T02:42:52;13.90;76.73
74923;HTU21D;64715;44.760;37.678;2023-05-07T02:43:53;13.91;76.81
74923;HTU21D;64715;44.760;37.678;2023-05-07T02:44:54;13.89;76.70
74923;HTU21D;64715;44.760;37.678;2023-05-07T02:46:08;13.86;76.90
74923;HTU21D;64715;44.760;37.678;2023-05-07T02:47:14;13.88;76.79
74923;HTU21D;64715;44.760;37.678;2023-05-07T02:48:17;13.86;76.79
74923;HTU21D;64715;44.760;37.678;2023-05-07T02:49:17;13.90;76.76
74923;HTU21D;64715;44.760;37.678;2023-05-07T02:50:18;13.88;77.04
74923;HTU21D;64715;44.760;37.678;2023-05-07T02:51:21;13.89;76.72
74923;HTU21D;64715;44.760;37.678;2023-05-07T02:52:22;13.88;76.95
74923;HTU21D;64715;44.760;37.678;2023-05-07T02:53:24;13.89;76.95
74923;HTU21D;64715;44.760;37.678;2023-05-07T02:54:27;13.91;77.03
74923;HTU21D;64715;44.760;37.678;2023-05-07T02:55:28;13.88;76.97
74923;HTU21D;64715;44.760;37.678;2023-05-07T02:56:29;13.90;76.94
74923;HTU21D;64715;44.760;37.678;2023-05-07T02:57:31;13.91;77.19
74923;HTU21D;64715;44.760;37.678;2023-05-07T02:58:32;13.91;77.00
74923;HTU21D;64715;44.760;37.678;2023-05-07T02:59:34;13.92;76.99
74923;HTU21D;64715;44.760;37.678;2023-05-07T03:00:35;13.91;77.02
74923;HTU21D;64715;44.760;37.678;2023-05-07T03:01:55;13.92;76.85
74923;HTU21D;64715;44.760;37.678;2023-05-07T03:02:56;13.91;77.00
74923;HTU21D;64715;44.760;37.678;2023-05-07T03:03:57;13.91;76.85
74923;HTU21D;64715;44.760;37.678;2023-05-07T03:04:58;13.92;77.00
74923;HTU21D;64715;44.760;37.678;2023-05-07T03:05:59;13.92;77.23
74923;HTU21D;64715;44.760;37.678;2023-05-07T03:07:00;13.92;77.00
74923;HTU21D;64715;44.760;37.678;2023-05-07T03:08:03;13.92;76.75
74923;HTU21D;64715;44.760;37.678;2023-05-07T03:09:04;13.93;77.01
74923;HTU21D;64715;44.760;37.678;2023-05-07T03:10:07;13.93;76.87
74923;HTU21D;64715;44.760;37.678;2023-05-07T03:11:08;13.92;77.01
74923;HTU21D;64715;44.760;37.678;2023-05-07T03:12:09;13.93;77.00
74923;HTU21D;64715;44.760;37.678;2023-05-07T03:13:10;13.95;77.27
74923;HTU21D;64715;44.760;37.678;2023-05-07T03:14:11;13.96;77.05
74923;HTU21D;64715;44.760;37.678;2023-05-07T03:15:13;13.97;77.40
74923;HTU21D;64715;44.760;37.678;2023-05-07T03:16:14;13.98;77.27
74923;HTU21D;64715;44.760;37.678;2023-05-07T03:17:15;13.99;77.26
74923;HTU21D;64715;44.760;37.678;2023-05-07T03:18:16;14.03;77.39
74923;HTU21D;64715;44.760;37.678;2023-05-07T03:19:19;14.00;77.18
74923;HTU21D;64715;44.760;37.678;2023-05-07T03:20:20;14.03;77.26
74923;HTU21D;64715;44.760;37.678;2023-05-07T03:21:21;14.01;77.27
74923;HTU21D;64715;44.760;37.678;2023-05-07T03:22:22;14.03;77.44
74923;HTU21D;64715;44.760;37.678;2023-05-07T03:23:23;14.01;77.26
74923;HTU21D;64715;44.760;37.678;2023-05-07T03:24:23;14.04;77.37
74923;HTU21D;64715;44.760;37.678;2023-05-07T03:25:25;14.03;77.29
74923;HTU21D;64715;44.760;37.678;2023-05-07T03:26:26;14.04;77.45
74923;HTU21D;64715;44.760;37.678;2023-05-07T03:27:27;14.04;77.35
74923;HTU21D;64715;44.760;37.678;2023-05-07T03:28:29;14.05;77.39
74923;HTU21D;64715;44.760;37.678;2023-05-07T03:29:34;14.04;77.60
74923;HTU21D;64715;44.760;37.678;2023-05-07T03:30:35;14.05;77.52
74923;HTU21D;64715;44.760;37.678;2023-05-07T03:31:36;14.05;77.50
74923;HTU21D;64715;44.760;37.678;2023-05-07T03:32:37;14.07;77.46
74923;HTU21D;64715;44.760;37.678;2023-05-07T03:33:55;14.09;77.44
74923;HTU21D;64715;44.760;37.678;2023-05-07T03:34:58;14.08;77.45
74923;HTU21D;64715;44.760;37.678;2023-05-07T03:35:59;14.08;77.27
74923;HTU21D;64715;44.760;37.678;2023-05-07T03:37:00;14.08;77.39
74923;HTU21D;64715;44.760;37.678;2023-05-07T03:38:02;14.09;77.76
74923;HTU21D;64715;44.760;37.678;2023-05-07T03:39:05;14.07;77.36
74923;HTU21D;64715;44.760;37.678;2023-05-07T03:40:12;14.10;77.54
74923;HTU21D;64715;44.760;37.678;2023-05-07T03:41:23;14.10;77.55
74923;HTU21D;64715;44.760;37.678;2023-05-07T03:42:24;14.13;77.66
74923;HTU21D;64715;44.760;37.678;2023-05-07T03:43:26;14.12;77.65
74923;HTU21D;64715;44.760;37.678;2023-05-07T03:44:35;14.14;77.66
74923;HTU21D;64715;44.760;37.678;2023-05-07T03:45:37;14.15;77.57
74923;HTU21D;64715;44.760;37.678;2023-05-07T03:46:46;14.19;77.61
74923;HTU21D;64715;44.760;37.678;2023-05-07T03:47:47;14.21;77.28
74923;HTU21D;64715;44.760;37.678;2023-05-07T03:48:52;14.22;77.48
74923;HTU21D;64715;44.760;37.678;2023-05-07T03:49:54;14.23;77.20
74923;HTU21D;64715;44.760;37.678;2023-05-07T03:50:57;14.23;77.34
74923;HTU21D;64715;44.760;37.678;2023-05-07T03:52:01;14.24;77.29
74923;HTU21D;64715;44.760;37.678;2023-05-07T03:53:03;14.25;77.01
74923;HTU21D;64715;44.760;37.678;2023-05-07T03:54:08;14.25;77.09
74923;HTU21D;64715;44.760;37.678;2023-05-07T03:55:09;14.28;77.49
74923;HTU21D;64715;44.760;37.678;2023-05-07T03:56:12;14.27;77.30
74923;HTU21D;64715;44.760;37.678;2023-05-07T03:57:16;14.28;77.26
74923;HTU21D;64715;44.760;37.678;2023-05-07T03:58:16;14.28;77.25
74923;HTU21D;64715;44.760;37.678;2023-05-07T03:59:18;14.29;77.36
74923;HTU21D;64715;44.760;37.678;2023-05-07T04:00:21;14.27;77.56
74923;HTU21D;64715;44.760;37.678;2023-05-07T04:01:22;14.26;77.34
74923;HTU21D;64715;44.760;37.678;2023-05-07T04:02:23;14.26;77.38
74923;HTU21D;64715;44.760;37.678;2023-05-07T04:03:24;14.26;77.76
74923;HTU21D;64715;44.760;37.678;2023-05-07T04:04:26;14.26;77.57
74923;HTU21D;64715;44.760;37.678;2023-05-07T04:05:27;14.26;77.63
74923;HTU21D;64715;44.760;37.678;2023-05-07T04:06:32;14.25;77.82
74923;HTU21D;64715;44.760;37.678;2023-05-07T04:07:33;14.26;77.87
74923;HTU21D;64715;44.760;37.678;2023-05-07T04:08:34;14.25;77.60
74923;HTU21D;64715;44.760;37.678;2023-05-07T04:09:37;14.26;77.82
74923;HTU21D;64715;44.760;37.678;2023-05-07T04:10:38;14.28;77.75
74923;HTU21D;64715;44.760;37.678;2023-05-07T04:11:43;14.26;77.76
74923;HTU21D;64715;44.760;37.678;2023-05-07T04:12:45;14.28;77.78
74923;HTU21D;64715;44.760;37.678;2023-05-07T04:13:51;14.27;77.77
74923;HTU21D;64715;44.760;37.678;2023-05-07T04:14:55;14.26;77.71
74923;HTU21D;64715;44.760;37.678;2023-05-07T04:15:57;14.27;77.52
74923;HTU21D;64715;44.760;37.678;2023-05-07T04:17:00;14.26;77.42
74923;HTU21D;64715;44.760;37.678;2023-05-07T04:18:02;14.25;77.77
74923;HTU21D;64715;44.760;37.678;2023-05-07T04:19:04;14.25;77.98
74923;HTU21D;64715;44.760;37.678;2023-05-07T04:20:09;14.24;78.18
74923;HTU21D;64715;44.760;37.678;2023-05-07T04:21:19;14.25;77.98
74923;HTU21D;64715;44.760;37.678;2023-05-07T04:22:21;14.24;77.91
74923;HTU21D;64715;44.760;37.678;2023-05-07T04:23:22;14.23;77.99
74923;HTU21D;64715;44.760;37.678;2023-05-07T04:24:23;14.24;77.68
74923;HTU21D;64715;44.760;37.678;2023-05-07T04:25:25;14.26;78.05
74923;HTU21D;64715;44.760;37.678;2023-05-07T04:26:30;14.22;78.01
74923;HTU21D;64715;44.760;37.678;2023-05-07T04:27:32;14.23;78.14
74923;HTU21D;64715;44.760;37.678;2023-05-07T04:28:34;14.20;78.05
74923;HTU21D;64715;44.760;37.678;2023-05-07T04:29:35;14.19;78.32
74923;HTU21D;64715;44.760;37.678;2023-05-07T04:30:37;14.19;78.23
74923;HTU21D;64715;44.760;37.678;2023-05-07T04:31:40;14.18;77.92
74923;HTU21D;64715;44.760;37.678;2023-05-07T04:32:43;14.19;77.95
74923;HTU21D;64715;44.760;37.678;2023-05-07T04:33:45;14.18;77.95
74923;HTU21D;64715;44.760;37.678;2023-05-07T04:34:48;14.18;77.73
74923;HTU21D;64715;44.760;37.678;2023-05-07T04:35:49;14.15;77.73
74923;HTU21D;64715;44.760;37.678;2023-05-07T04:36:50;14.17;77.92
74923;HTU21D;64715;44.760;37.678;2023-05-07T04:37:51;14.14;77.58
74923;HTU21D;64715;44.760;37.678;2023-05-07T04:38:53;14.12;77.71
74923;HTU21D;64715;44.760;37.678;2023-05-07T04:39:54;14.08;77.82
74923;HTU21D;64715;44.760;37.678;2023-05-07T04:40:58;14.04;77.75
74923;HTU21D;64715;44.760;37.678;2023-05-07T04:42:01;13.96;77.60
74923;HTU21D;64715;44.760;37.678;2023-05-07T04:43:03;13.89;77.96
74923;HTU21D;64715;44.760;37.678;2023-05-07T04:44:09;13.80;78.12
74923;HTU21D;64715;44.760;37.678;2023-05-07T04:45:10;13.76;78.12
74923;HTU21D;64715;44.760;37.678;2023-05-07T04:46:13;13.69;78.57
74923;HTU21D;64715;44.760;37.678;2023-05-07T04:47:15;13.67;78.63
74923;HTU21D;64715;44.760;37.678;2023-05-07T04:48:17;13.65;78.55
74923;HTU21D;64715;44.760;37.678;2023-05-07T04:49:20;13.62;78.69
74923;HTU21D;64715;44.760;37.678;2023-05-07T04:50:21;13.60;78.89
74923;HTU21D;64715;44.760;37.678;2023-05-07T04:51:25;13.61;78.82
74923;HTU21D;64715;44.760;37.678;2023-05-07T04:52:26;13.59;79.05
74923;HTU21D;64715;44.760;37.678;2023-05-07T04:53:28;13.60;79.04
74923;HTU21D;64715;44.760;37.678;2023-05-07T04:54:30;13.59;79.24
74923;HTU21D;64715;44.760;37.678;2023-05-07T04:55:31;13.60;79.26
74923;HTU21D;64715;44.760;37.678;2023-05-07T04:56:32;13.62;79.43
74923;HTU21D;64715;44.760;37.678;2023-05-07T04:57:34;13.63;79.23
74923;HTU21D;64715;44.760;37.678;2023-05-07T04:58:35;13.65;79.09
74923;HTU21D;64715;44.760;37.678;2023-05-07T04:59:36;13.65;79.13
74923;HTU21D;64715;44.760;37.678;2023-05-07T05:00:38;13.66;79.10
74923;HTU21D;64715;44.760;37.678;2023-05-07T05:01:43;13.68;79.18
74923;HTU21D;64715;44.760;37.678;2023-05-07T05:02:47;13.69;79.42
74923;HTU21D;64715;44.760;37.678;2023-05-07T05:03:52;13.70;79.22
74923;HTU21D;64715;44.760;37.678;2023-05-07T05:04:54;13.70;79.47
74923;HTU21D;64715;44.760;37.678;2023-05-07T05:05:57;13.70;79.43
74923;HTU21D;64715;44.760;37.678;2023-05-07T05:07:02;13.70;79.49
74923;HTU21D;64715;44.760;37.678;2023-05-07T05:08:05;13.73;79.19
74923;HTU21D;64715;44.760;37.678;2023-05-07T05:09:09;13.71;79.52
74923;HTU21D;64715;44.760;37.678;2023-05-07T05:10:11;13.69;79.59
74923;HTU21D;64715;44.760;37.678;2023-05-07T05:11:17;13.74;79.40
74923;HTU21D;64715;44.760;37.678;2023-05-07T05:12:19;13.74;79.33
74923;HTU21D;64715;44.760;37.678;2023-05-07T05:13:20;13.71;79.34
74923;HTU21D;64715;44.760;37.678;2023-05-07T05:14:22;13.73;79.22
74923;HTU21D;64715;44.760;37.678;2023-05-07T05:15:25;13.73;79.24
74923;HTU21D;64715;44.760;37.678;2023-05-07T05:16:26;13.75;79.08
74923;HTU21D;64715;44.760;37.678;2023-05-07T05:17:27;13.73;79.21
74923;HTU21D;64715;44.760;37.678;2023-05-07T05:18:28;13.77;79.20
74923;HTU21D;64715;44.760;37.678;2023-05-07T05:19:30;13.77;79.29
74923;HTU21D;64715;44.760;37.678;2023-05-07T05:20:31;13.78;79.04
74923;HTU21D;64715;44.760;37.678;2023-05-07T05:21:33;13.79;79.27
74923;HTU21D;64715;44.760;37.678;2023-05-07T05:22:41;13.80;78.98
74923;HTU21D;64715;44.760;37.678;2023-05-07T05:23:43;13.81;79.11
74923;HTU21D;64715;44.760;37.678;2023-05-07T05:24:47;13.83;78.87
74923;HTU21D;64715;44.760;37.678;2023-05-07T05:25:48;13.83;78.82
74923;HTU21D;64715;44.760;37.678;2023-05-07T05:26:49;13.84;78.97
74923;HTU21D;64715;44.760;37.678;2023-05-07T05:27:51;13.85;78.67
74923;HTU21D;64715;44.760;37.678;2023-05-07T05:28:52;13.86;78.77
74923;HTU21D;64715;44.760;37.678;2023-05-07T05:29:55;13.88;78.70
74923;HTU21D;64715;44.760;37.678;2023-05-07T05:30:57;13.86;78.71
74923;HTU21D;64715;44.760;37.678;2023-05-07T05:32:00;13.88;78.61
74923;HTU21D;64715;44.760;37.678;2023-05-07T05:33:02;13.86;78.64
74923;HTU21D;64715;44.760;37.678;2023-05-07T05:34:04;13.89;78.53
74923;HTU21D;64715;44.760;37.678;2023-05-07T05:35:05;13.90;78.38
74923;HTU21D;64715;44.760;37.678;2023-05-07T05:36:09;13.91;78.33
74923;HTU21D;64715;44.760;37.678;2023-05-07T05:37:11;13.89;78.45
74923;HTU21D;64715;44.760;37.678;2023-05-07T05:38:13;13.91;78.20
74923;HTU21D;64715;44.760;37.678;2023-05-07T05:39:18;13.90;78.04
74923;HTU21D;64715;44.760;37.678;2023-05-07T05:40:19;13.90;78.16
74923;HTU21D;64715;44.760;37.678;2023-05-07T05:41:21;13.88;78.16
74923;HTU21D;64715;44.760;37.678;2023-05-07T05:42:22;13.86;78.04
74923;HTU21D;64715;44.760;37.678;2023-05-07T05:43:23;13.86;77.95
74923;HTU21D;64715;44.760;37.678;2023-05-07T05:44:25;13.86;77.90
74923;HTU21D;64715;44.760;37.678;2023-05-07T05:45:26;13.83;77.90
74923;HTU21D;64715;44.760;37.678;2023-05-07T05:46:27;13.82;77.98
74923;HTU21D;64715;44.760;37.678;2023-05-07T05:47:28;13.80;77.91
74923;HTU21D;64715;44.760;37.678;2023-05-07T05:48:30;13.78;77.83
74923;HTU21D;64715;44.760;37.678;2023-05-07T05:49:33;13.77;77.94
74923;HTU21D;64715;44.760;37.678;2023-05-07T05:50:34;13.76;77.98
74923;HTU21D;64715;44.760;37.678;2023-05-07T05:51:39;13.75;78.07
74923;HTU21D;64715;44.760;37.678;2023-05-07T05:52:40;13.74;78.09
74923;HTU21D;64715;44.760;37.678;2023-05-07T05:53:42;13.74;78.26
74923;HTU21D;64715;44.760;37.678;2023-05-07T05:54:43;13.75;78.27
74923;HTU21D;64715;44.760;37.678;2023-05-07T05:55:44;13.76;78.43
74923;HTU21D;64715;44.760;37.678;2023-05-07T05:56:46;13.78;78.50
74923;HTU21D;64715;44.760;37.678;2023-05-07T05:57:50;13.85;78.59
74923;HTU21D;64715;44.760;37.678;2023-05-07T05:58:51;13.90;78.70
74923;HTU21D;64715;44.760;37.678;2023-05-07T05:59:52;13.95;78.91
74923;HTU21D;64715;44.760;37.678;2023-05-07T06:00:54;14.03;79.11
74923;HTU21D;64715;44.760;37.678;2023-05-07T06:01:58;14.11;78.99
74923;HTU21D;64715;44.760;37.678;2023-05-07T06:02:59;14.18;78.87
74923;HTU21D;64715;44.760;37.678;2023-05-07T06:04:01;14.25;78.63
74923;HTU21D;64715;44.760;37.678;2023-05-07T06:05:04;14.33;78.41
74923;HTU21D;64715;44.760;37.678;2023-05-07T06:06:05;14.38;78.21
74923;HTU21D;64715;44.760;37.678;2023-05-07T06:07:06;14.41;77.87
74923;HTU21D;64715;44.760;37.678;2023-05-07T06:08:07;14.43;77.84
74923;HTU21D;64715;44.760;37.678;2023-05-07T06:09:09;14.44;77.64
74923;HTU21D;64715;44.760;37.678;2023-05-07T06:10:15;14.48;77.72
74923;HTU21D;64715;44.760;37.678;2023-05-07T06:11:17;14.48;77.75
74923;HTU21D;64715;44.760;37.678;2023-05-07T06:12:20;14.49;77.63
74923;HTU21D;64715;44.760;37.678;2023-05-07T06:13:23;14.50;77.67
74923;HTU21D;64715;44.760;37.678;2023-05-07T06:14:25;14.51;77.62
74923;HTU21D;64715;44.760;37.678;2023-05-07T06:15:26;14.53;77.53
74923;HTU21D;64715;44.760;37.678;2023-05-07T06:16:31;14.56;77.46
74923;HTU21D;64715;44.760;37.678;2023-05-07T06:17:32;14.57;76.98
74923;HTU21D;64715;44.760;37.678;2023-05-07T06:18:33;14.55;77.00
74923;HTU21D;64715;44.760;37.678;2023-05-07T06:19:36;14.53;76.98
74923;HTU21D;64715;44.760;37.678;2023-05-07T06:20:38;14.51;76.95
74923;HTU21D;64715;44.760;37.678;2023-05-07T06:21:45;14.52;77.09
74923;HTU21D;64715;44.760;37.678;2023-05-07T06:22:46;14.53;77.03